sensor_id;sensor_type;location;lat;lon;timestamp;P1;durP1;ratioP1;P2;durP2;ratioP2
4676;SDS011;2352;48.180;11.478;2024-01-25T00:00:36;8.30;;;3.60;;
4676;SDS011;2352;48.180;11.478;2024-01-25T00:05:39;5.73;;;2.90;;
4676;SDS011;2352;48.180;11.478;2024-01-25T00:10:42;7.83;;;3.33;;
4676;SDS011;2352;48.180;11.478;2024-01-25T00:15:46;13.37;;;4.57;;
4676;SDS011;2352;48.180;11.478;2024-01-25T00:20:50;9.40;;;3.23;;
4676;SDS011;2352;48.180;11.478;2024-01-25T00:25:53;6.57;;;3.70;;
4676;SDS011;2352;48.180;11.478;2024-01-25T00:31:00;6.40;;;3.13;;
4676;SDS011;2352;48.180;11.478;2024-01-25T00:36:04;7.83;;;3.43;;
4676;SDS011;2352;48.180;11.478;2024-01-25T00:41:08;4.00;;;2.40;;
4676;SDS011;2352;48.180;11.478;2024-01-25T00:46:14;6.83;;;3.20;;
4676;SDS011;2352;48.180;11.478;2024-01-25T00:51:19;6.57;;;2.97;;
4676;SDS011;2352;48.180;11.478;2024-01-25T00:56:25;5.00;;;2.67;;
4676;SDS011;2352;48.180;11.478;2024-01-25T01:01:30;12.07;;;4.03;;
4676;SDS011;2352;48.180;11.478;2024-01-25T01:06:33;9.57;;;3.20;;
4676;SDS011;2352;48.180;11.478;2024-01-25T01:11:37;6.10;;;3.00;;
4676;SDS011;2352;48.180;11.478;2024-01-25T01:16:41;8.07;;;2.97;;
4676;SDS011;2352;48.180;11.478;2024-01-25T01:21:44;7.80;;;3.13;;
4676;SDS011;2352;48.180;11.478;2024-01-25T01:26:47;10.23;;;3.63;;
4676;SDS011;2352;48.180;11.478;2024-01-25T01:31:53;9.43;;;3.80;;
4676;SDS011;2352;48.180;11.478;2024-01-25T01:36:56;8.87;;;2.97;;
4676;SDS011;2352;48.180;11.478;2024-01-25T01:41:59;11.23;;;3.97;;
4676;SDS011;2352;48.180;11.478;2024-01-25T01:47:03;6.23;;;3.53;;
4676;SDS011;2352;48.180;11.478;2024-01-25T01:52:06;14.97;;;4.47;;
4676;SDS011;2352;48.180;11.478;2024-01-25T01:57:10;7.10;;;3.77;;
4676;SDS011;2352;48.180;11.478;2024-01-25T02:02:14;11.43;;;4.23;;
4676;SDS011;2352;48.180;11.478;2024-01-25T02:07:18;14.83;;;4.53;;
4676;SDS011;2352;48.180;11.478;2024-01-25T02:12:20;9.63;;;3.87;;
4676;SDS011;2352;48.180;11.478;2024-01-25T02:17:25;11.40;;;3.87;;
4676;SDS011;2352;48.180;11.478;2024-01-25T02:22:29;6.97;;;3.80;;
4676;SDS011;2352;48.180;11.478;2024-01-25T02:27:32;11.57;;;3.73;;
4676;SDS011;2352;48.180;11.478;2024-01-25T02:32:40;5.77;;;3.27;;
4676;SDS011;2352;48.180;11.478;2024-01-25T02:37:46;10.67;;;3.43;;
4676;SDS011;2352;48.180;11.478;2024-01-25T02:42:51;10.30;;;3.27;;
4676;SDS011;2352;48.180;11.478;2024-01-25T02:47:55;10.67;;;3.67;;
4676;SDS011;2352;48.180;11.478;2024-01-25T02:53:01;7.17;;;3.80;;
4676;SDS011;2352;48.180;11.478;2024-01-25T02:58:04;7.67;;;3.20;;
4676;SDS011;2352;48.180;11.478;2024-01-25T03:03:07;12.57;;;3.60;;
4676;SDS011;2352;48.180;11.478;2024-01-25T03:08:12;8.70;;;3.77;;
4676;SDS011;2352;48.180;11.478;2024-01-25T03:13:14;5.40;;;2.80;;
4676;SDS011;2352;48.180;11.478;2024-01-25T03:18:18;4.77;;;2.93;;
4676;SDS011;2352;48.180;11.478;2024-01-25T03:23:23;7.83;;;3.00;;
4676;SDS011;2352;48.180;11.478;2024-01-25T03:28:26;7.90;;;3.67;;
4676;SDS011;2352;48.180;11.478;2024-01-25T03:33:29;11.93;;;3.50;;
4676;SDS011;2352;48.180;11.478;2024-01-25T03:38:35;5.63;;;3.17;;
4676;SDS011;2352;48.180;11.478;2024-01-25T03:43:38;8.07;;;2.70;;
4676;SDS011;2352;48.180;11.478;2024-01-25T03:48:45;10.93;;;2.90;;
4676;SDS011;2352;48.180;11.478;2024-01-25T03:53:49;4.87;;;3.30;;
4676;SDS011;2352;48.180;11.478;2024-01-25T03:58:54;10.00;;;2.97;;
4676;SDS011;2352;48.180;11.478;2024-01-25T04:03:57;6.83;;;2.77;;
4676;SDS011;2352;48.180;11.478;2024-01-25T04:09:01;10.63;;;2.87;;
4676;SDS011;2352;48.180;11.478;2024-01-25T04:14:05;8.70;;;3.13;;
4676;SDS011;2352;48.180;11.478;2024-01-25T04:19:07;7.17;;;3.37;;
4676;SDS011;2352;48.180;11.478;2024-01-25T04:24:15;8.07;;;3.83;;
4676;SDS011;2352;48.180;11.478;2024-01-25T04:29:18;9.60;;;3.13;;
4676;SDS011;2352;48.180;11.478;2024-01-25T04:34:21;7.07;;;3.03;;
4676;SDS011;2352;48.180;11.478;2024-01-25T04:39:25;5.37;;;2.63;;
4676;SDS011;2352;48.180;11.478;2024-01-25T04:44:29;7.27;;;2.93;;
4676;SDS011;2352;48.180;11.478;2024-01-25T04:49:31;12.93;;;4.27;;
4676;SDS011;2352;48.180;11.478;2024-01-25T04:54:36;17.63;;;4.07;;
4676;SDS011;2352;48.180;11.478;2024-01-25T04:59:39;8.57;;;3.07;;
4676;SDS011;2352;48.180;11.478;2024-01-25T05:04:42;6.97;;;3.80;;
4676;SDS011;2352;48.180;11.478;2024-01-25T05:09:48;7.83;;;3.67;;
4676;SDS011;2352;48.180;11.478;2024-01-25T05:14:51;5.67;;;3.77;;
4676;SDS011;2352;48.180;11.478;2024-01-25T05:19:54;12.57;;;6.63;;
4676;SDS011;2352;48.180;11.478;2024-01-25T05:24:58;11.20;;;7.33;;
4676;SDS011;2352;48.180;11.478;2024-01-25T05:30:02;8.57;;;5.93;;
4676;SDS011;2352;48.180;11.478;2024-01-25T05:35:06;6.83;;;3.77;;
4676;SDS011;2352;48.180;11.478;2024-01-25T05:40:12;6.30;;;2.63;;
4676;SDS011;2352;48.180;11.478;2024-01-25T05:45:15;6.73;;;2.90;;
4676;SDS011;2352;48.180;11.478;2024-01-25T05:50:21;6.83;;;2.50;;
4676;SDS011;2352;48.180;11.478;2024-01-25T05:55:25;10.33;;;3.37;;
4676;SDS011;2352;48.180;11.478;2024-01-25T06:00:28;11.87;;;3.97;;
4676;SDS011;2352;48.180;11.478;2024-01-25T06:05:31;7.93;;;3.37;;
4676;SDS011;2352;48.180;11.478;2024-01-25T06:10:36;9.50;;;3.70;;
4676;SDS011;2352;48.180;11.478;2024-01-25T06:15:40;9.73;;;3.97;;
4676;SDS011;2352;48.180;11.478;2024-01-25T06:20:43;11.33;;;4.20;;
4676;SDS011;2352;48.180;11.478;2024-01-25T06:25:48;11.40;;;4.07;;
4676;SDS011;2352;48.180;11.478;2024-01-25T06:30:51;11.67;;;4.07;;
4676;SDS011;2352;48.180;11.478;2024-01-25T06:35:55;8.63;;;4.23;;
4676;SDS011;2352;48.180;11.478;2024-01-25T06:41:01;10.33;;;4.07;;
4676;SDS011;2352;48.180;11.478;2024-01-25T06:46:04;8.03;;;3.80;;
4676;SDS011;2352;48.180;11.478;2024-01-25T06:51:08;6.77;;;3.80;;
4676;SDS011;2352;48.180;11.478;2024-01-25T06:56:12;8.70;;;4.30;;
4676;SDS011;2352;48.180;11.478;2024-01-25T07:01:19;8.03;;;3.97;;
4676;SDS011;2352;48.180;11.478;2024-01-25T07:06:24;9.10;;;4.90;;
4676;SDS011;2352;48.180;11.478;2024-01-25T07:11:29;8.07;;;4.50;;
4676;SDS011;2352;48.180;11.478;2024-01-25T07:16:32;10.37;;;5.00;;
4676;SDS011;2352;48.180;11.478;2024-01-25T07:21:34;10.67;;;4.93;;
4676;SDS011;2352;48.180;11.478;2024-01-25T07:26:39;12.43;;;4.00;;
4676;SDS011;2352;48.180;11.478;2024-01-25T07:31:42;9.23;;;4.93;;
4676;SDS011;2352;48.180;11.478;2024-01-25T07:36:45;11.43;;;4.87;;
4676;SDS011;2352;48.180;11.478;2024-01-25T07:41:49;8.43;;;3.50;;
4676;SDS011;2352;48.180;11.478;2024-01-25T07:46:53;9.67;;;4.20;;
4676;SDS011;2352;48.180;11.478;2024-01-25T07:51:55;7.80;;;4.23;;
4676;SDS011;2352;48.180;11.478;2024-01-25T07:57:00;10.80;;;4.47;;
4676;SDS011;2352;48.180;11.478;2024-01-25T08:02:03;8.53;;;4.20;;
4676;SDS011;2352;48.180;11.478;2024-01-25T08:07:07;12.37;;;5.13;;
4676;SDS011;2352;48.180;11.478;2024-01-25T08:12:12;12.90;;;5.03;;
4676;SDS011;2352;48.180;11.478;2024-01-25T08:17:15;12.80;;;4.67;;
4676;SDS011;2352;48.180;11.478;2024-01-25T08:22:18;15.90;;;4.77;;
4676;SDS011;2352;48.180;11.478;2024-01-25T08:27:25;11.37;;;5.33;;
4676;SDS011;2352;48.180;11.478;2024-01-25T08:32:28;14.40;;;5.00;;
4676;SDS011;2352;48.180;11.478;2024-01-25T08:37:31;13.07;;;4.97;;
4676;SDS011;2352;48.180;11.478;2024-01-25T08:42:35;13.30;;;5.63;;
4676;SDS011;2352;48.180;11.478;2024-01-25T08:47:39;8.87;;;4.40;;
4676;SDS011;2352;48.180;11.478;2024-01-25T08:52:42;10.20;;;4.30;;
4676;SDS011;2352;48.180;11.478;2024-01-25T08:57:47;11.37;;;4.40;;
4676;SDS011;2352;48.180;11.478;2024-01-25T09:02:50;10.97;;;4.67;;
4676;SDS011;2352;48.180;11.478;2024-01-25T09:07:53;7.97;;;4.23;;
4676;SDS011;2352;48.180;11.478;2024-01-25T09:12:58;9.23;;;5.30;;
4676;SDS011;2352;48.180;11.478;2024-01-25T09:18:01;22.87;;;5.87;;
4676;SDS011;2352;48.180;11.478;2024-01-25T09:23:05;20.43;;;6.27;;
4676;SDS011;2352;48.180;11.478;2024-01-25T09:28:09;14.63;;;5.80;;
4676;SDS011;2352;48.180;11.478;2024-01-25T09:33:13;20.97;;;5.90;;
4676;SDS011;2352;48.180;11.478;2024-01-25T09:38:17;16.33;;;4.97;;
4676;SDS011;2352;48.180;11.478;2024-01-25T09:43:21;12.30;;;4.13;;
4676;SDS011;2352;48.180;11.478;2024-01-25T09:48:25;9.90;;;4.90;;
4676;SDS011;2352;48.180;11.478;2024-01-25T09:53:28;8.67;;;4.43;;
4676;SDS011;2352;48.180;11.478;2024-01-25T09:58:40;15.33;;;5.33;;
4676;SDS011;2352;48.180;11.478;2024-01-25T10:03:44;10.80;;;4.87;;
4676;SDS011;2352;48.180;11.478;2024-01-25T10:08:48;15.90;;;5.47;;
4676;SDS011;2352;48.180;11.478;2024-01-25T10:13:53;13.80;;;5.57;;
4676;SDS011;2352;48.180;11.478;2024-01-25T10:18:58;14.53;;;5.03;;
4676;SDS011;2352;48.180;11.478;2024-01-25T10:24:01;11.67;;;4.60;;
4676;SDS011;2352;48.180;11.478;2024-01-25T10:29:06;9.13;;;4.03;;
4676;SDS011;2352;48.180;11.478;2024-01-25T10:34:11;8.10;;;4.40;;
4676;SDS011;2352;48.180;11.478;2024-01-25T10:39:16;15.43;;;5.13;;
4676;SDS011;2352;48.180;11.478;2024-01-25T10:44:22;17.00;;;5.70;;
4676;SDS011;2352;48.180;11.478;2024-01-25T10:49:25;12.43;;;5.47;;
4676;SDS011;2352;48.180;11.478;2024-01-25T10:54:28;22.67;;;5.63;;
4676;SDS011;2352;48.180;11.478;2024-01-25T10:59:33;16.20;;;4.30;;
4676;SDS011;2352;48.180;11.478;2024-01-25T11:04:36;11.77;;;4.63;;
4676;SDS011;2352;48.180;11.478;2024-01-25T11:09:39;13.50;;;4.13;;
4676;SDS011;2352;48.180;11.478;2024-01-25T11:14:44;22.40;;;4.83;;
4676;SDS011;2352;48.180;11.478;2024-01-25T11:19:48;13.00;;;4.03;;
4676;SDS011;2352;48.180;11.478;2024-01-25T11:24:51;9.97;;;4.10;;
4676;SDS011;2352;48.180;11.478;2024-01-25T11:29:56;12.03;;;5.20;;
4676;SDS011;2352;48.180;11.478;2024-01-25T11:34:59;8.80;;;4.00;;
4676;SDS011;2352;48.180;11.478;2024-01-25T11:40:03;11.50;;;4.80;;
4676;SDS011;2352;48.180;11.478;2024-01-25T11:45:09;9.83;;;4.43;;
4676;SDS011;2352;48.180;11.478;2024-01-25T11:50:13;8.90;;;4.00;;
4676;SDS011;2352;48.180;11.478;2024-01-25T11:55:16;12.60;;;3.77;;
4676;SDS011;2352;48.180;11.478;2024-01-25T12:00:21;14.17;;;4.57;;
4676;SDS011;2352;48.180;11.478;2024-01-25T12:05:24;6.20;;;3.47;;
4676;SDS011;2352;48.180;11.478;2024-01-25T12:10:29;16.03;;;4.30;;
4676;SDS011;2352;48.180;11.478;2024-01-25T12:15:33;7.70;;;4.37;;
4676;SDS011;2352;48.180;11.478;2024-01-25T12:20:36;17.40;;;4.20;;
4676;SDS011;2352;48.180;11.478;2024-01-25T12:25:40;14.77;;;4.03;;
4676;SDS011;2352;48.180;11.478;2024-01-25T12:30:44;9.77;;;3.50;;
4676;SDS011;2352;48.180;11.478;2024-01-25T12:35:47;11.97;;;3.83;;
4676;SDS011;2352;48.180;11.478;2024-01-25T12:40:50;7.07;;;3.07;;
4676;SDS011;2352;48.180;11.478;2024-01-25T12:45:56;7.73;;;3.20;;
4676;SDS011;2352;48.180;11.478;2024-01-25T12:51:17;9.60;;;3.70;;
4676;SDS011;2352;48.180;11.478;2024-01-25T12:56:20;6.73;;;2.97;;
4676;SDS011;2352;48.180;11.478;2024-01-25T13:01:24;10.47;;;3.50;;
4676;SDS011;2352;48.180;11.478;2024-01-25T13:06:28;9.30;;;3.87;;
4676;SDS011;2352;48.180;11.478;2024-01-25T13:11:32;8.13;;;3.60;;
4676;SDS011;2352;48.180;11.478;2024-01-25T13:16:36;19.07;;;4.73;;
4676;SDS011;2352;48.180;11.478;2024-01-25T13:21:39;9.97;;;3.50;;
4676;SDS011;2352;48.180;11.478;2024-01-25T13:26:43;8.73;;;3.87;;
4676;SDS011;2352;48.180;11.478;2024-01-25T13:31:47;10.57;;;3.40;;
4676;SDS011;2352;48.180;11.478;2024-01-25T13:36:50;9.07;;;3.63;;
4676;SDS011;2352;48.180;11.478;2024-01-25T13:41:53;5.17;;;2.40;;
4676;SDS011;2352;48.180;11.478;2024-01-25T13:46:58;9.13;;;3.37;;
4676;SDS011;2352;48.180;11.478;2024-01-25T13:52:03;7.20;;;3.23;;
4676;SDS011;2352;48.180;11.478;2024-01-25T13:57:06;6.83;;;3.43;;
4676;SDS011;2352;48.180;11.478;2024-01-25T14:02:11;7.37;;;2.97;;
4676;SDS011;2352;48.180;11.478;2024-01-25T14:07:14;7.67;;;2.90;;
4676;SDS011;2352;48.180;11.478;2024-01-25T14:12:18;11.27;;;3.53;;
4676;SDS011;2352;48.180;11.478;2024-01-25T14:17:22;5.63;;;2.77;;
4676;SDS011;2352;48.180;11.478;2024-01-25T14:22:26;9.80;;;5.30;;
4676;SDS011;2352;48.180;11.478;2024-01-25T14:27:34;4.90;;;2.40;;
4676;SDS011;2352;48.180;11.478;2024-01-25T14:32:39;6.83;;;2.80;;
4676;SDS011;2352;48.180;11.478;2024-01-25T14:37:42;8.97;;;2.80;;
4676;SDS011;2352;48.180;11.478;2024-01-25T14:42:45;5.80;;;3.17;;
4676;SDS011;2352;48.180;11.478;2024-01-25T14:47:49;8.47;;;2.80;;
4676;SDS011;2352;48.180;11.478;2024-01-25T14:52:52;15.20;;;5.70;;
4676;SDS011;2352;48.180;11.478;2024-01-25T14:57:55;7.33;;;3.43;;
4676;SDS011;2352;48.180;11.478;2024-01-25T15:02:59;10.67;;;3.20;;
4676;SDS011;2352;48.180;11.478;2024-01-25T15:08:03;14.40;;;3.73;;
4676;SDS011;2352;48.180;11.478;2024-01-25T15:13:06;8.10;;;2.97;;
4676;SDS011;2352;48.180;11.478;2024-01-25T15:18:10;18.63;;;4.77;;
4676;SDS011;2352;48.180;11.478;2024-01-25T15:23:14;13.73;;;4.40;;
4676;SDS011;2352;48.180;11.478;2024-01-25T15:28:17;5.03;;;3.50;;
4676;SDS011;2352;48.180;11.478;2024-01-25T15:33:22;7.77;;;3.97;;
4676;SDS011;2352;48.180;11.478;2024-01-25T15:38:26;14.93;;;4.67;;
4676;SDS011;2352;48.180;11.478;2024-01-25T15:43:28;14.20;;;4.13;;
4676;SDS011;2352;48.180;11.478;2024-01-25T15:48:33;9.67;;;4.23;;
4676;SDS011;2352;48.180;11.478;2024-01-25T15:53:36;13.70;;;4.00;;
4676;SDS011;2352;48.180;11.478;2024-01-25T15:58:39;9.30;;;4.90;;
4676;SDS011;2352;48.180;11.478;2024-01-25T16:03:43;15.07;;;4.73;;
4676;SDS011;2352;48.180;11.478;2024-01-25T16:08:46;7.57;;;4.60;;
4676;SDS011;2352;48.180;11.478;2024-01-25T16:13:50;16.07;;;6.87;;
4676;SDS011;2352;48.180;11.478;2024-01-25T16:18:54;10.93;;;6.23;;
4676;SDS011;2352;48.180;11.478;2024-01-25T16:23:57;12.50;;;5.07;;
4676;SDS011;2352;48.180;11.478;2024-01-25T16:29:01;7.03;;;4.80;;
4676;SDS011;2352;48.180;11.478;2024-01-25T16:34:05;10.70;;;5.10;;
4676;SDS011;2352;48.180;11.478;2024-01-25T16:39:08;15.83;;;6.37;;
4676;SDS011;2352;48.180;11.478;2024-01-25T16:44:11;9.87;;;5.50;;
4676;SDS011;2352;48.180;11.478;2024-01-25T16:49:15;8.00;;;5.47;;
4676;SDS011;2352;48.180;11.478;2024-01-25T16:54:18;7.53;;;5.13;;
4676;SDS011;2352;48.180;11.478;2024-01-25T16:59:21;10.63;;;6.20;;
4676;SDS011;2352;48.180;11.478;2024-01-25T17:04:26;15.33;;;6.23;;
4676;SDS011;2352;48.180;11.478;2024-01-25T17:09:29;11.90;;;7.27;;
4676;SDS011;2352;48.180;11.478;2024-01-25T17:14:32;10.97;;;6.07;;
4676;SDS011;2352;48.180;11.478;2024-01-25T17:19:36;12.43;;;5.83;;
4676;SDS011;2352;48.180;11.478;2024-01-25T17:24:39;18.83;;;8.80;;
4676;SDS011;2352;48.180;11.478;2024-01-25T17:29:42;13.63;;;8.73;;
4676;SDS011;2352;48.180;11.478;2024-01-25T17:34:46;14.17;;;5.57;;
4676;SDS011;2352;48.180;11.478;2024-01-25T17:39:50;17.73;;;7.53;;
4676;SDS011;2352;48.180;11.478;2024-01-25T17:44:53;16.57;;;8.43;;
4676;SDS011;2352;48.180;11.478;2024-01-25T17:49:57;12.60;;;7.27;;
4676;SDS011;2352;48.180;11.478;2024-01-25T17:55:00;13.07;;;7.37;;
4676;SDS011;2352;48.180;11.478;2024-01-25T18:00:05;21.70;;;9.30;;
4676;SDS011;2352;48.180;11.478;2024-01-25T18:05:10;10.93;;;6.30;;
4676;SDS011;2352;48.180;11.478;2024-01-25T18:10:13;11.33;;;5.70;;
4676;SDS011;2352;48.180;11.478;2024-01-25T18:15:17;5.43;;;4.67;;
4676;SDS011;2352;48.180;11.478;2024-01-25T18:20:22;4.83;;;2.90;;
4676;SDS011;2352;48.180;11.478;2024-01-25T18:25:25;3.00;;;2.53;;
4676;SDS011;2352;48.180;11.478;2024-01-25T18:30:28;4.17;;;2.87;;
4676;SDS011;2352;48.180;11.478;2024-01-25T18:35:32;5.27;;;3.10;;
4676;SDS011;2352;48.180;11.478;2024-01-25T18:40:35;4.07;;;2.93;;
4676;SDS011;2352;48.180;11.478;2024-01-25T18:45:38;6.03;;;3.63;;
4676;SDS011;2352;48.180;11.478;2024-01-25T18:50:43;3.10;;;2.90;;
4676;SDS011;2352;48.180;11.478;2024-01-25T18:55:46;3.27;;;2.43;;
4676;SDS011;2352;48.180;11.478;2024-01-25T19:00:50;3.40;;;2.87;;
4676;SDS011;2352;48.180;11.478;2024-01-25T19:05:55;3.83;;;2.33;;
4676;SDS011;2352;48.180;11.478;2024-01-25T19:10:59;10.27;;;2.47;;
4676;SDS011;2352;48.180;11.478;2024-01-25T19:16:02;2.63;;;2.43;;
4676;SDS011;2352;48.180;11.478;2024-01-25T19:21:07;3.83;;;2.50;;
4676;SDS011;2352;48.180;11.478;2024-01-25T19:26:10;2.67;;;2.47;;
4676;SDS011;2352;48.180;11.478;2024-01-25T19:31:13;2.50;;;2.20;;
4676;SDS011;2352;48.180;11.478;2024-01-25T19:36:19;2.17;;;1.80;;
4676;SDS011;2352;48.180;11.478;2024-01-25T19:41:22;2.07;;;1.97;;
4676;SDS011;2352;48.180;11.478;2024-01-25T19:46:25;1.93;;;1.77;;
4676;SDS011;2352;48.180;11.478;2024-01-25T19:51:29;2.60;;;2.17;;
4676;SDS011;2352;48.180;11.478;2024-01-25T19:56:32;2.17;;;1.87;;
4676;SDS011;2352;48.180;11.478;2024-01-25T20:01:35;2.87;;;2.67;;
4676;SDS011;2352;48.180;11.478;2024-01-25T20:06:41;2.60;;;2.40;;
4676;SDS011;2352;48.180;11.478;2024-01-25T20:11:44;2.67;;;2.50;;
4676;SDS011;2352;48.180;11.478;2024-01-25T20:16:47;2.80;;;2.60;;
4676;SDS011;2352;48.180;11.478;2024-01-25T20:21:51;1.97;;;1.87;;
4676;SDS011;2352;48.180;11.478;2024-01-25T20:26:54;2.90;;;2.70;;
4676;SDS011;2352;48.180;11.478;2024-01-25T20:31:57;2.27;;;2.17;;
4676;SDS011;2352;48.180;11.478;2024-01-25T20:37:01;2.73;;;2.53;;
4676;SDS011;2352;48.180;11.478;2024-01-25T20:42:05;3.10;;;2.90;;
4676;SDS011;2352;48.180;11.478;2024-01-25T20:47:09;2.40;;;2.30;;
4676;SDS011;2352;48.180;11.478;2024-01-25T20:52:13;2.57;;;2.47;;
4676;SDS011;2352;48.180;11.478;2024-01-25T20:57:16;3.30;;;3.10;;
4676;SDS011;2352;48.180;11.478;2024-01-25T21:02:19;2.83;;;2.70;;
4676;SDS011;2352;48.180;11.478;2024-01-25T21:07:24;2.23;;;2.13;;
4676;SDS011;2352;48.180;11.478;2024-01-25T21:12:28;2.87;;;2.67;;
4676;SDS011;2352;48.180;11.478;2024-01-25T21:17:31;5.57;;;2.20;;
4676;SDS011;2352;48.180;11.478;2024-01-25T21:22:36;3.00;;;2.80;;
4676;SDS011;2352;48.180;11.478;2024-01-25T21:27:39;2.80;;;2.60;;
4676;SDS011;2352;48.180;11.478;2024-01-25T21:32:42;3.13;;;2.93;;
4676;SDS011;2352;48.180;11.478;2024-01-25T21:37:46;3.13;;;2.93;;
4676;SDS011;2352;48.180;11.478;2024-01-25T21:42:49;2.80;;;2.70;;
4676;SDS011;2352;48.180;11.478;2024-01-25T21:47:53;3.03;;;2.83;;
4676;SDS011;2352;48.180;11.478;2024-01-25T21:52:58;3.27;;;3.07;;
4676;SDS011;2352;48.180;11.478;2024-01-25T21:58:01;3.00;;;2.80;;
4676;SDS011;2352;48.180;11.478;2024-01-25T22:03:07;4.43;;;4.13;;
4676;SDS011;2352;48.180;11.478;2024-01-25T22:08:11;4.20;;;3.90;;
4676;SDS011;2352;48.180;11.478;2024-01-25T22:13:15;4.43;;;4.13;;
4676;SDS011;2352;48.180;11.478;2024-01-25T22:18:18;4.00;;;3.80;;
4676;SDS011;2352;48.180;11.478;2024-01-25T22:23:23;4.03;;;3.73;;
4676;SDS011;2352;48.180;11.478;2024-01-25T22:28:28;3.97;;;3.77;;
4676;SDS011;2352;48.180;11.478;2024-01-25T22:33:33;4.10;;;3.80;;
4676;SDS011;2352;48.180;11.478;2024-01-25T22:38:38;3.37;;;3.07;;
4676;SDS011;2352;48.180;11.478;2024-01-25T22:43:41;3.27;;;3.07;;
4676;SDS011;2352;48.180;11.478;2024-01-25T22:48:44;2.80;;;2.60;;
4676;SDS011;2352;48.180;11.478;2024-01-25T22:53:48;2.80;;;2.60;;
4676;SDS011;2352;48.180;11.478;2024-01-25T22:58:53;3.27;;;3.07;;
4676;SDS011;2352;48.180;11.478;2024-01-25T23:03:56;2.80;;;2.70;;
4676;SDS011;2352;48.180;11.478;2024-01-25T23:09:00;3.33;;;3.13;;
4676;SDS011;2352;48.180;11.478;2024-01-25T23:14:05;3.77;;;3.60;;
4676;SDS011;2352;48.180;11.478;2024-01-25T23:19:08;4.00;;;3.80;;
4676;SDS011;2352;48.180;11.478;2024-01-25T23:24:13;4.37;;;4.07;;
4676;SDS011;2352;48.180;11.478;2024-01-25T23:29:16;3.43;;;3.23;;
4676;SDS011;2352;48.180;11.478;2024-01-25T23:34:20;3.73;;;3.50;;
4676;SDS011;2352;48.180;11.478;2024-01-25T23:39:24;3.73;;;3.43;;
4676;SDS011;2352;48.180;11.478;2024-01-25T23:44:28;4.30;;;4.00;;
4676;SDS011;2352;48.180;11.478;2024-01-25T23:49:31;3.67;;;3.47;;
4676;SDS011;2352;48.180;11.478;2024-01-25T23:54:36;3.63;;;3.43;;
4676;SDS011;2352;48.180;11.478;2024-01-25T23:59:39;4.77;;;4.37;;
